Terminal Aerodrome Forecast
Issued by NWS Omaha/Valley, NE

Home | Current Version | Previous Version | Text Only | Print | Product List | Glossary On
Versions: 1 2 3 4 5 6 7 8 9 10 11 12 13 14 15 16 17 18
000
FTUS43 KOAX 230724 AAA
TAFOMA
TAF AMD
KOMA 230724Z 2307/2406 36006KT P6SM SCT250
     FM231000 01014KT P6SM OVC008
     FM231800 03015G23KT P6SM OVC012
     FM240200 01018G24KT 2SM -RA BR OVC007=

USA.gov is the U.S. government's official web portal to all federal, state and local government web resources and services.